createdAt,value
2018-08-24T00:02:16.333Z,4.63
2018-08-24T00:04:43.488Z,4.73
2018-08-24T00:07:10.706Z,4.70
2018-08-24T00:09:37.993Z,5.07
2018-08-24T00:12:05.509Z,5.40
2018-08-24T00:14:32.763Z,5.27
2018-08-24T00:17:00.036Z,5.60
2018-08-24T00:19:27.266Z,5.73
2018-08-24T00:21:54.440Z,6.13
2018-08-24T00:24:21.683Z,6.20
2018-08-24T00:26:48.872Z,5.90
2018-08-24T00:29:16.060Z,5.20
2018-08-24T00:31:43.305Z,6.00
2018-08-24T00:34:10.449Z,5.43
2018-08-24T00:36:37.628Z,5.87
2018-08-24T00:39:06.576Z,6.20
2018-08-24T00:41:33.888Z,6.07
2018-08-24T00:44:01.091Z,6.00
2018-08-24T00:46:28.300Z,5.90
2018-08-24T00:48:55.496Z,5.80
2018-08-24T00:51:22.704Z,7.43
2018-08-24T00:53:49.982Z,5.60
2018-08-24T00:56:17.225Z,8.53
2018-08-24T00:58:44.459Z,5.57
2018-08-24T01:01:11.712Z,5.30
2018-08-24T01:03:39.229Z,4.33
2018-08-24T01:06:06.557Z,5.40
2018-08-24T01:08:34.003Z,4.87
2018-08-24T01:11:01.359Z,5.60
2018-08-24T01:13:28.620Z,5.00
2018-08-24T01:15:58.071Z,4.60
2018-08-24T01:18:31.099Z,4.10
2018-08-24T01:20:58.464Z,4.67
2018-08-24T01:23:27.781Z,4.10
2018-08-24T01:25:54.996Z,3.40
2018-08-24T01:28:22.204Z,3.50
2018-08-24T01:30:49.740Z,4.07
2018-08-24T01:33:17.616Z,3.43
2018-08-24T01:35:45.448Z,3.40
2018-08-24T01:38:12.732Z,3.63
2018-08-24T01:40:39.961Z,3.90
2018-08-24T01:43:08.028Z,3.90
2018-08-24T01:45:35.272Z,2.80
2018-08-24T01:48:02.513Z,2.87
2018-08-24T01:50:29.774Z,3.07
2018-08-24T01:52:56.985Z,2.57
2018-08-24T01:55:24.160Z,2.70
2018-08-24T01:57:51.344Z,2.47
2018-08-24T02:00:18.564Z,2.30
2018-08-24T02:02:46.264Z,2.40
2018-08-24T02:05:13.680Z,2.63
2018-08-24T02:07:40.968Z,3.00
2018-08-24T02:10:13.824Z,2.30
2018-08-24T02:13:44.381Z,3.20
2018-08-24T02:16:11.573Z,2.93
2018-08-24T02:18:44.322Z,3.37
2018-08-24T02:21:17.213Z,2.90
2018-08-24T02:23:44.460Z,2.20
2018-08-24T02:26:11.673Z,1.90
2018-08-24T02:28:38.888Z,3.03
2018-08-24T02:31:06.211Z,2.37
2018-08-24T02:33:37.417Z,2.50
2018-08-24T02:36:04.580Z,3.30
2018-08-24T02:38:31.841Z,2.23
2018-08-24T02:40:59.066Z,2.80
2018-08-24T02:43:26.298Z,2.67
2018-08-24T02:45:53.568Z,2.90
2018-08-24T02:48:20.775Z,2.30
2018-08-24T02:50:48.037Z,2.63
2018-08-24T02:53:15.284Z,2.40
2018-08-24T02:55:42.505Z,2.73
2018-08-24T02:58:09.700Z,2.20
2018-08-24T03:00:36.905Z,2.33
2018-08-24T03:03:04.276Z,2.90
2018-08-24T03:05:31.598Z,2.37
2018-08-24T03:07:59.250Z,2.50
2018-08-24T03:10:26.469Z,2.53
2018-08-24T03:12:53.728Z,3.13
2018-08-24T03:15:20.988Z,2.40
2018-08-24T03:17:54.335Z,1.90
2018-08-24T03:20:23.325Z,2.10
2018-08-24T03:22:50.524Z,2.87
2018-08-24T03:25:17.794Z,2.33
2018-08-24T03:27:45.005Z,2.57
2018-08-24T03:30:12.206Z,2.57
2018-08-24T03:32:39.421Z,2.70
2018-08-24T03:35:06.633Z,2.17
2018-08-24T03:37:33.792Z,2.40
2018-08-24T03:40:00.997Z,2.17
2018-08-24T03:42:28.164Z,2.50
2018-08-24T03:44:55.396Z,2.67
2018-08-24T03:47:22.573Z,3.03
2018-08-24T03:49:50.491Z,2.80
2018-08-24T03:52:17.700Z,2.70
2018-08-24T03:54:44.928Z,2.67
2018-08-24T03:57:12.152Z,2.73
2018-08-24T03:59:39.329Z,2.70
2018-08-24T04:02:09.940Z,2.80
2018-08-24T04:04:37.124Z,2.23
2018-08-24T04:07:04.328Z,1.83
2018-08-24T04:09:31.549Z,2.20
2018-08-24T04:11:58.720Z,2.80
2018-08-24T04:14:26.686Z,2.67
2018-08-24T04:16:59.838Z,3.23
2018-08-24T04:19:27.967Z,2.90
2018-08-24T04:21:55.669Z,2.60
2018-08-24T04:24:23.035Z,2.53
2018-08-24T04:26:50.841Z,3.10
2018-08-24T04:29:18.142Z,2.80
2018-08-24T04:31:45.416Z,2.70
2018-08-24T04:34:12.699Z,3.60
2018-08-24T04:36:39.948Z,2.90
2018-08-24T04:39:08.652Z,2.87
2018-08-24T04:41:36.057Z,2.90
2018-08-24T04:44:03.304Z,3.20
2018-08-24T04:46:30.526Z,3.00
2018-08-24T04:48:57.744Z,3.27
2018-08-24T04:51:25.078Z,2.60
2018-08-24T04:53:52.299Z,3.30
2018-08-24T04:56:19.561Z,2.40
2018-08-24T04:58:46.741Z,2.70
2018-08-24T05:01:13.980Z,3.00
2018-08-24T05:03:41.492Z,2.70
2018-08-24T05:06:08.764Z,3.20
2018-08-24T05:08:35.967Z,2.50
2018-08-24T05:11:03.241Z,2.40
2018-08-24T05:13:30.872Z,3.20
2018-08-24T05:15:58.132Z,2.83
2018-08-24T05:18:25.352Z,2.47
2018-08-24T05:20:52.556Z,2.83
2018-08-24T05:23:19.841Z,3.27
2018-08-24T05:25:47.106Z,2.60
2018-08-24T05:28:14.645Z,2.87
2018-08-24T05:30:41.936Z,2.93
2018-08-24T05:33:09.833Z,2.90
2018-08-24T05:35:37.072Z,2.70
2018-08-24T05:38:04.728Z,2.63
2018-08-24T05:40:31.980Z,2.40
2018-08-24T05:42:59.161Z,2.13
2018-08-24T05:45:26.424Z,1.70
2018-08-24T05:47:54.684Z,1.90
2018-08-24T05:50:21.991Z,2.27
2018-08-24T05:52:49.176Z,2.40
2018-08-24T05:55:16.400Z,2.00
2018-08-24T05:57:43.621Z,1.30
2018-08-24T06:00:10.912Z,1.03
2018-08-24T06:02:38.135Z,1.23
2018-08-24T06:05:05.412Z,1.10
2018-08-24T06:07:32.660Z,0.90
2018-08-24T06:09:59.874Z,1.17
2018-08-24T06:12:27.101Z,1.10
2018-08-24T06:14:54.374Z,1.10
2018-08-24T06:17:27.351Z,0.97
2018-08-24T06:19:54.572Z,1.20
2018-08-24T06:22:21.820Z,1.17
2018-08-24T06:24:49.068Z,1.30
2018-08-24T06:27:16.268Z,1.00
2018-08-24T06:29:43.436Z,1.10
2018-08-24T06:32:10.728Z,0.87
2018-08-24T06:34:37.996Z,1.00
2018-08-24T06:37:05.289Z,1.10
2018-08-24T06:39:32.405Z,1.10
2018-08-24T06:41:59.784Z,1.20
2018-08-24T06:44:26.897Z,1.20
2018-08-24T06:46:54.091Z,1.17
2018-08-24T06:49:21.959Z,1.27
2018-08-24T06:51:49.272Z,1.00
2018-08-24T06:54:16.484Z,1.10
2018-08-24T06:56:43.740Z,1.33
2018-08-24T06:59:11.032Z,1.00
2018-08-24T07:01:38.298Z,1.00
2018-08-24T07:04:06.533Z,1.20
2018-08-24T07:06:33.792Z,1.03
2018-08-24T07:09:01.075Z,1.00
2018-08-24T07:11:28.312Z,0.90
2018-08-24T07:13:55.537Z,0.70
2018-08-24T07:16:22.808Z,0.90
2018-08-24T07:18:50.032Z,1.10
2018-08-24T07:21:17.285Z,1.00
2018-08-24T07:23:44.518Z,0.90
2018-08-24T07:26:11.810Z,0.90
2018-08-24T07:28:39.201Z,1.00
2018-08-24T07:31:06.704Z,1.10
2018-08-24T07:33:33.973Z,0.90
2018-08-24T07:36:01.183Z,1.30
2018-08-24T07:38:28.436Z,1.00
2018-08-24T07:40:55.661Z,1.10
2018-08-24T07:43:22.944Z,1.23
2018-08-24T07:45:50.092Z,1.00
2018-08-24T07:48:17.308Z,1.20
2018-08-24T07:50:44.579Z,1.13
2018-08-24T07:53:11.781Z,1.50
2018-08-24T07:55:39.075Z,1.00
2018-08-24T07:58:06.616Z,1.37
2018-08-24T08:00:33.812Z,1.30
2018-08-24T08:03:01.025Z,1.10
2018-08-24T08:05:28.254Z,1.07
2018-08-24T08:07:55.397Z,1.23
2018-08-24T08:10:22.676Z,1.20
2018-08-24T08:12:49.880Z,1.10
2018-08-24T08:15:17.165Z,1.10
2018-08-24T08:17:44.397Z,1.00
2018-08-24T08:20:11.627Z,1.03
2018-08-24T08:22:38.836Z,1.13
2018-08-24T08:25:06.044Z,1.27
2018-08-24T08:27:34.071Z,1.77
2018-08-24T08:30:03.576Z,1.83
2018-08-24T08:32:31.335Z,1.90
2018-08-24T08:34:58.582Z,1.93
2018-08-24T08:37:25.833Z,2.57
2018-08-24T08:39:57.649Z,2.50
2018-08-24T08:42:24.918Z,2.50
2018-08-24T08:44:52.107Z,2.30
2018-08-24T08:47:19.323Z,3.10
2018-08-24T08:49:46.522Z,2.40
2018-08-24T08:52:14.252Z,2.73
2018-08-24T08:54:41.465Z,2.43
2018-08-24T08:57:08.757Z,2.80
2018-08-24T08:59:35.962Z,3.20
2018-08-24T09:02:03.414Z,2.60
2018-08-24T09:04:30.673Z,3.10
2018-08-24T09:06:57.881Z,3.10
2018-08-24T09:09:25.101Z,3.80
2018-08-24T09:11:52.318Z,3.03
2018-08-24T09:14:19.500Z,2.60
2018-08-24T09:16:46.777Z,3.03
2018-08-24T09:19:19.656Z,3.17
2018-08-24T09:21:52.601Z,3.27
2018-08-24T09:24:25.483Z,2.83
2018-08-24T09:26:58.420Z,2.37
2018-08-24T09:29:26.668Z,3.10
2018-08-24T09:31:54.563Z,2.80
2018-08-24T09:34:21.917Z,2.50
2018-08-24T09:36:49.093Z,2.70
2018-08-24T09:39:16.325Z,3.53
2018-08-24T09:41:43.556Z,2.80
2018-08-24T09:44:10.829Z,3.23
2018-08-24T09:46:43.927Z,2.30
2018-08-24T09:49:16.872Z,2.97
2018-08-24T09:51:44.081Z,3.30
2018-08-24T09:54:11.269Z,2.50
2018-08-24T09:56:39.528Z,3.57
2018-08-24T09:59:06.736Z,2.70
2018-08-24T10:01:39.689Z,2.57
2018-08-24T10:04:12.584Z,2.77
2018-08-24T10:06:45.512Z,2.70
2018-08-24T10:09:13.836Z,3.00
2018-08-24T10:11:41.269Z,2.97
2018-08-24T10:14:08.837Z,3.10
2018-08-24T10:16:36.317Z,2.50
2018-08-24T10:19:03.560Z,2.60
2018-08-24T10:21:30.801Z,2.13
2018-08-24T10:23:57.981Z,1.97
2018-08-24T10:26:25.419Z,2.40
2018-08-24T10:28:52.664Z,2.20
2018-08-24T10:31:19.840Z,2.50
2018-08-24T10:33:47.140Z,3.00
2018-08-24T10:36:14.423Z,3.47
2018-08-24T10:38:41.782Z,3.30
2018-08-24T10:41:09.461Z,3.40
2018-08-24T10:43:36.713Z,3.00
2018-08-24T10:46:03.900Z,3.17
2018-08-24T10:48:31.124Z,3.23
2018-08-24T10:50:58.365Z,2.97
2018-08-24T10:53:25.581Z,2.70
2018-08-24T10:55:52.737Z,3.00
2018-08-24T10:58:19.969Z,3.50
2018-08-24T11:00:47.204Z,3.07
2018-08-24T11:03:14.516Z,3.13
2018-08-24T11:05:41.711Z,2.67
2018-08-24T11:08:08.988Z,3.70
2018-08-24T11:10:36.216Z,2.50
2018-08-24T11:13:03.420Z,3.70
2018-08-24T11:15:30.656Z,3.07
2018-08-24T11:18:03.581Z,3.33
2018-08-24T11:20:30.856Z,2.50
2018-08-24T11:22:58.065Z,3.17
2018-08-24T11:25:25.245Z,3.23
2018-08-24T11:27:52.488Z,3.43
2018-08-24T11:30:19.696Z,2.83
2018-08-24T11:32:46.933Z,2.77
2018-08-24T11:35:14.171Z,3.17
2018-08-24T11:37:41.360Z,4.13
2018-08-24T11:40:08.576Z,3.33
2018-08-24T11:42:35.793Z,3.30
2018-08-24T11:45:03.081Z,3.97
2018-08-24T11:47:30.337Z,3.80
2018-08-24T11:49:57.579Z,3.00
2018-08-24T11:52:24.764Z,3.80
2018-08-24T11:54:51.998Z,4.20
2018-08-24T11:57:19.280Z,3.20
2018-08-24T11:59:46.592Z,3.27
2018-08-24T12:02:13.779Z,3.20
2018-08-24T12:04:40.931Z,3.33
2018-08-24T12:07:08.142Z,3.20
2018-08-24T12:09:35.376Z,3.90
2018-08-24T12:12:02.689Z,3.67
2018-08-24T12:14:29.859Z,2.90
2018-08-24T12:16:57.077Z,4.10
2018-08-24T12:19:24.320Z,4.60
2018-08-24T12:21:51.564Z,3.83
2018-08-24T12:24:18.803Z,3.60
2018-08-24T12:26:46.051Z,3.50
2018-08-24T12:29:13.328Z,3.03
2018-08-24T12:31:40.860Z,3.57
2018-08-24T12:34:08.105Z,3.53
2018-08-24T12:36:35.395Z,4.30
2018-08-24T12:39:04.084Z,3.70
2018-08-24T12:41:31.264Z,3.83
2018-08-24T12:43:58.464Z,3.40
2018-08-24T12:46:25.656Z,3.33
2018-08-24T12:48:52.849Z,3.30
2018-08-24T12:51:20.130Z,3.20
2018-08-24T12:53:47.393Z,3.60
2018-08-24T12:56:19.570Z,3.90
2018-08-24T12:58:47.429Z,3.00
2018-08-24T13:01:14.901Z,2.90
2018-08-24T13:03:42.324Z,3.57
2018-08-24T13:06:09.828Z,2.97
2018-08-24T13:08:37.044Z,3.33
2018-08-24T13:11:04.812Z,3.63
2018-08-24T13:13:32.041Z,3.47
2018-08-24T13:15:59.304Z,3.70
2018-08-24T13:18:26.542Z,3.00
2018-08-24T13:20:53.761Z,2.70
2018-08-24T13:23:20.981Z,4.03
2018-08-24T13:25:48.184Z,3.33
2018-08-24T13:28:15.396Z,3.43
2018-08-24T13:30:42.620Z,3.40
2018-08-24T13:33:09.870Z,3.13
2018-08-24T13:35:37.438Z,3.20
2018-08-24T13:38:05.276Z,3.17
2018-08-24T13:40:32.476Z,2.93
2018-08-24T13:42:59.853Z,3.17
2018-08-24T13:45:27.480Z,3.20
2018-08-24T13:47:54.682Z,3.20
2018-08-24T13:50:21.896Z,3.40
2018-08-24T13:52:49.079Z,3.00
2018-08-24T13:55:16.369Z,4.13
2018-08-24T13:57:43.549Z,3.23
2018-08-24T14:00:10.797Z,3.10
2018-08-24T14:02:38.025Z,2.83
2018-08-24T14:05:05.288Z,3.33
2018-08-24T14:07:32.869Z,3.50
2018-08-24T14:10:00.109Z,3.03
2018-08-24T14:12:27.345Z,2.40
2018-08-24T14:14:54.561Z,2.70
2018-08-24T14:17:21.789Z,3.13
2018-08-24T14:19:49.020Z,2.77
2018-08-24T14:22:16.232Z,2.73
2018-08-24T14:24:43.447Z,2.80
2018-08-24T14:27:10.668Z,2.47
2018-08-24T14:29:37.897Z,2.63
2018-08-24T14:32:05.431Z,2.70
2018-08-24T14:34:32.700Z,2.37
2018-08-24T14:36:59.932Z,2.10
2018-08-24T14:39:27.270Z,3.10
2018-08-24T14:41:55.404Z,2.67
2018-08-24T14:44:22.694Z,2.60
2018-08-24T14:46:49.913Z,2.30
2018-08-24T14:49:17.089Z,3.20
2018-08-24T14:51:44.314Z,2.40
2018-08-24T14:54:11.541Z,2.20
2018-08-24T14:56:38.803Z,2.27
2018-08-24T14:59:06.025Z,3.07
2018-08-24T15:01:33.861Z,2.30
2018-08-24T15:04:01.068Z,3.40
2018-08-24T15:06:28.322Z,3.17
2018-08-24T15:08:55.558Z,2.80
2018-08-24T15:11:22.788Z,3.10
2018-08-24T15:13:49.964Z,3.70
2018-08-24T15:16:17.168Z,2.90
2018-08-24T15:18:44.401Z,2.60
2018-08-24T15:21:11.611Z,2.90
2018-08-24T15:23:38.856Z,2.60
2018-08-24T15:26:06.045Z,2.87
2018-08-24T15:28:33.338Z,3.23
2018-08-24T15:31:00.515Z,2.70
2018-08-24T15:33:27.780Z,2.43
2018-08-24T15:35:54.986Z,2.60
2018-08-24T15:38:22.906Z,2.53
2018-08-24T15:40:50.075Z,3.13
2018-08-24T15:43:17.280Z,3.20
2018-08-24T15:45:44.605Z,2.87
2018-08-24T15:48:11.926Z,2.43
2018-08-24T15:50:39.066Z,2.70
2018-08-24T15:53:06.340Z,2.37
2018-08-24T15:55:33.565Z,2.27
2018-08-24T15:58:00.770Z,2.80
2018-08-24T16:00:28.028Z,2.60
2018-08-24T16:02:55.313Z,2.20
2018-08-24T16:05:22.560Z,1.70
2018-08-24T16:07:49.750Z,2.43
2018-08-24T16:10:17.054Z,1.93
2018-08-24T16:12:45.757Z,2.03
2018-08-24T16:15:13.076Z,2.20
2018-08-24T16:17:40.312Z,2.33
2018-08-24T16:20:07.650Z,2.23
2018-08-24T16:22:34.896Z,2.30
2018-08-24T16:25:02.124Z,2.20
2018-08-24T16:27:32.138Z,2.23
2018-08-24T16:29:59.393Z,2.00
2018-08-24T16:32:26.653Z,2.47
2018-08-24T16:34:53.896Z,2.20
2018-08-24T16:37:21.145Z,1.90
2018-08-24T16:39:48.532Z,2.50
2018-08-24T16:42:15.822Z,2.23
2018-08-24T16:44:43.099Z,2.50
2018-08-24T16:47:10.363Z,2.37
2018-08-24T16:49:37.539Z,2.40
2018-08-24T16:52:04.716Z,2.30
2018-08-24T16:54:31.955Z,2.50
2018-08-24T16:56:59.144Z,2.30
2018-08-24T16:59:26.373Z,2.13
2018-08-24T17:01:53.578Z,1.90
2018-08-24T17:04:20.917Z,2.67
2018-08-24T17:06:48.138Z,2.17
2018-08-24T17:09:15.360Z,2.13
2018-08-24T17:11:42.622Z,2.10
2018-08-24T17:14:09.872Z,2.43
2018-08-24T17:16:37.151Z,1.70
2018-08-24T17:19:04.394Z,2.30
2018-08-24T17:21:31.586Z,2.00
2018-08-24T17:24:01.157Z,2.00
2018-08-24T17:26:30.968Z,2.50
2018-08-24T17:29:00.584Z,2.00
2018-08-24T17:31:27.917Z,2.07
2018-08-24T17:33:55.566Z,2.00
2018-08-24T17:36:22.884Z,1.70
2018-08-24T17:38:50.204Z,1.63
2018-08-24T17:41:17.584Z,2.03
2018-08-24T17:43:44.836Z,1.60
2018-08-24T17:46:13.021Z,1.90
2018-08-24T17:48:40.344Z,1.80
2018-08-24T17:51:07.705Z,2.20
2018-08-24T17:53:34.924Z,2.83
2018-08-24T17:56:02.181Z,1.77
2018-08-24T17:58:29.380Z,1.47
2018-08-24T18:00:56.604Z,1.93
2018-08-24T18:03:23.821Z,1.47
2018-08-24T18:05:51.049Z,1.90
2018-08-24T18:08:18.249Z,1.63
2018-08-24T18:10:45.677Z,1.70
2018-08-24T18:13:12.809Z,1.50
2018-08-24T18:15:39.995Z,1.70
2018-08-24T18:18:07.236Z,2.27
2018-08-24T18:20:34.510Z,4.87
2018-08-24T18:23:01.809Z,2.50
2018-08-24T18:25:29.820Z,1.90
2018-08-24T18:27:57.052Z,1.20
2018-08-24T18:30:24.265Z,1.60
2018-08-24T18:32:51.457Z,1.30
2018-08-24T18:35:18.670Z,1.30
2018-08-24T18:37:45.870Z,1.30
2018-08-24T18:40:13.068Z,1.37
2018-08-24T18:42:40.351Z,1.33
2018-08-24T18:45:07.576Z,1.57
2018-08-24T18:47:34.832Z,1.57
2018-08-24T18:50:02.109Z,1.20
2018-08-24T18:52:29.309Z,1.23
2018-08-24T18:54:56.520Z,1.40
2018-08-24T18:57:23.703Z,1.47
2018-08-24T18:59:50.884Z,1.57
2018-08-24T19:02:18.220Z,1.47
2018-08-24T19:04:45.484Z,1.23
2018-08-24T19:07:12.692Z,1.30
2018-08-24T19:09:39.863Z,1.37
2018-08-24T19:12:12.679Z,1.37
2018-08-24T19:14:39.885Z,1.23
2018-08-24T19:17:11.708Z,1.10
2018-08-24T19:19:44.543Z,1.10
2018-08-24T19:22:11.756Z,1.40
2018-08-24T19:24:39.049Z,1.20
2018-08-24T19:27:06.850Z,1.37
2018-08-24T19:29:39.849Z,1.40
2018-08-24T19:32:07.440Z,1.20
2018-08-24T19:34:34.712Z,1.50
2018-08-24T19:37:01.989Z,1.50
2018-08-24T19:39:29.261Z,1.27
2018-08-24T19:42:02.076Z,1.53
2018-08-24T19:44:29.321Z,1.50
2018-08-24T19:46:56.571Z,1.10
2018-08-24T19:49:23.836Z,1.60
2018-08-24T19:51:51.032Z,1.30
2018-08-24T19:54:18.212Z,1.13
2018-08-24T19:56:45.497Z,1.00
2018-08-24T19:59:14.118Z,1.10
2018-08-24T20:01:41.333Z,1.17
2018-08-24T20:04:08.827Z,1.53
2018-08-24T20:06:41.814Z,6.60
2018-08-24T20:09:15.264Z,8.57
2018-08-24T20:11:44.486Z,3.00
2018-08-24T20:14:11.659Z,6.90
2018-08-24T20:17:45.533Z,8.03
2018-08-24T20:20:12.764Z,3.77
2018-08-24T20:22:40.087Z,1.57
2018-08-24T20:25:07.345Z,1.57
2018-08-24T20:27:34.536Z,1.50
2018-08-24T20:30:01.768Z,1.30
2018-08-24T20:32:29.067Z,1.40
2018-08-24T20:34:56.321Z,1.27
2018-08-24T20:37:24.048Z,1.20
2018-08-24T20:39:51.281Z,1.20
2018-08-24T20:42:18.533Z,1.20
2018-08-24T20:44:45.936Z,1.30
2018-08-24T20:47:13.138Z,1.27
2018-08-24T20:49:40.309Z,1.40
2018-08-24T20:52:07.590Z,1.20
2018-08-24T20:54:34.744Z,1.80
2018-08-24T20:57:01.966Z,1.40
2018-08-24T20:59:29.173Z,1.37
2018-08-24T21:01:56.404Z,1.43
2018-08-24T21:04:23.565Z,1.23
2018-08-24T21:06:50.772Z,1.30
2018-08-24T21:09:18.045Z,1.70
2018-08-24T21:11:45.234Z,1.10
2018-08-24T21:14:12.451Z,1.27
2018-08-24T21:16:39.722Z,1.47
2018-08-24T21:19:06.904Z,1.30
2018-08-24T21:21:34.133Z,1.63
2018-08-24T21:24:01.345Z,1.20
2018-08-24T21:26:28.556Z,1.30
2018-08-24T21:28:55.817Z,1.27
2018-08-24T21:31:23.056Z,1.20
2018-08-24T21:33:50.216Z,1.20
2018-08-24T21:36:17.392Z,1.30
2018-08-24T21:38:44.597Z,1.07
2018-08-24T21:41:11.858Z,1.20
2018-08-24T21:43:39.132Z,1.30
2018-08-24T21:46:06.923Z,1.20
2018-08-24T21:48:34.056Z,1.13
2018-08-24T21:51:01.186Z,1.40
2018-08-24T21:53:28.374Z,1.10
2018-08-24T21:55:58.240Z,1.10
2018-08-24T21:58:25.524Z,1.10
2018-08-24T22:00:52.744Z,1.17
2018-08-24T22:03:20.040Z,2.00
2018-08-24T22:05:47.263Z,1.63
2018-08-24T22:08:14.557Z,1.40
2018-08-24T22:10:41.774Z,4.30
2018-08-24T22:13:08.984Z,5.03
2018-08-24T22:15:36.168Z,4.73
2018-08-24T22:18:03.676Z,4.73
2018-08-24T22:20:30.921Z,6.33
2018-08-24T22:22:58.120Z,4.63
2018-08-24T22:25:25.488Z,2.97
2018-08-24T22:27:53.633Z,1.53
2018-08-24T22:30:20.849Z,1.50
2018-08-24T22:32:48.244Z,2.53
2018-08-24T22:35:15.509Z,1.10
2018-08-24T22:37:43.069Z,1.20
2018-08-24T22:40:10.691Z,1.63
2018-08-24T22:42:41.113Z,1.30
2018-08-24T22:45:08.376Z,1.60
2018-08-24T22:47:35.552Z,1.20
2018-08-24T22:50:03.693Z,1.43
2018-08-24T22:52:31.037Z,1.33
2018-08-24T22:54:58.254Z,1.20
2018-08-24T22:57:25.492Z,1.60
2018-08-24T22:59:52.672Z,1.10
2018-08-24T23:02:19.889Z,1.50
2018-08-24T23:04:47.321Z,1.10
2018-08-24T23:07:14.512Z,1.17
2018-08-24T23:09:42.173Z,1.43
2018-08-24T23:12:09.448Z,1.20
2018-08-24T23:14:36.723Z,1.70
2018-08-24T23:17:04.789Z,1.57
2018-08-24T23:19:32.298Z,1.47
2018-08-24T23:21:59.597Z,1.33
2018-08-24T23:24:27.012Z,1.00
2018-08-24T23:26:54.304Z,1.40
2018-08-24T23:29:21.533Z,1.17
2018-08-24T23:31:48.848Z,0.90
2018-08-24T23:34:16.269Z,1.00
2018-08-24T23:36:43.448Z,1.17
2018-08-24T23:39:11.828Z,1.10
2018-08-24T23:41:39.128Z,1.50
2018-08-24T23:44:06.501Z,1.30
2018-08-24T23:46:33.828Z,1.50
2018-08-24T23:49:01.125Z,1.50
2018-08-24T23:51:28.308Z,1.10
2018-08-24T23:53:55.626Z,5.50
2018-08-24T23:56:22.794Z,6.63
2018-08-24T23:58:50.139Z,4.83
